createdAt,value
2018-03-19T00:00:54.734Z,27.27
2018-03-19T00:03:22.298Z,21.98
2018-03-19T00:05:49.840Z,26.98
2018-03-19T00:08:17.388Z,24.67
2018-03-19T00:10:45.694Z,27.42
2018-03-19T00:13:13.257Z,23.75
2018-03-19T00:15:40.826Z,24.87
2018-03-19T00:18:08.374Z,28.27
2018-03-19T00:20:35.949Z,26.10
2018-03-19T00:23:03.509Z,24.87
2018-03-19T00:25:31.058Z,27.42
2018-03-19T00:27:58.623Z,29.45
2018-03-19T00:30:26.168Z,27.20
2018-03-19T00:32:53.734Z,32.47
2018-03-19T00:35:21.438Z,34.50
2018-03-19T00:37:48.913Z,44.70
2018-03-19T00:40:17.222Z,34.97
2018-03-19T00:42:44.776Z,31.80
2018-03-19T00:45:12.350Z,30.83
2018-03-19T00:47:39.877Z,29.67
2018-03-19T00:50:08.192Z,28.95
2018-03-19T00:52:35.728Z,23.73
2018-03-19T00:55:03.285Z,31.90
2018-03-19T00:57:31.598Z,28.65
2018-03-19T00:59:59.164Z,31.80
2018-03-19T01:02:26.706Z,27.08
2018-03-19T01:04:54.285Z,35.33
2018-03-19T01:07:21.824Z,29.08
2018-03-19T01:09:49.377Z,30.95
2018-03-19T01:12:16.950Z,26.42
2018-03-19T01:14:44.484Z,23.52
2018-03-19T01:17:12.832Z,25.48
2018-03-19T01:19:40.372Z,25.83
2018-03-19T01:22:08.720Z,26.40
2018-03-19T01:24:36.268Z,27.48
2018-03-19T01:27:03.823Z,30.67
2018-03-19T01:29:31.372Z,25.98
2018-03-19T01:31:58.948Z,25.42
2018-03-19T01:34:26.491Z,32.83
2018-03-19T01:36:54.060Z,31.85
2018-03-19T01:39:21.605Z,28.73
2018-03-19T01:41:49.144Z,32.95
2018-03-19T01:44:16.704Z,26.42
2018-03-19T01:46:44.243Z,21.83
2018-03-19T01:49:12.560Z,25.52
2018-03-19T01:51:40.162Z,29.23
2018-03-19T01:54:07.739Z,24.87
2018-03-19T01:56:36.059Z,27.45
2018-03-19T01:59:03.623Z,27.08
2018-03-19T02:01:31.425Z,28.08
2018-03-19T02:03:58.973Z,28.23
2018-03-19T02:06:26.524Z,30.85
2018-03-19T02:08:54.068Z,26.25
2018-03-19T02:11:21.632Z,31.20
2018-03-19T02:13:49.187Z,25.33
2018-03-19T02:16:16.727Z,28.50
2018-03-19T02:18:44.291Z,26.35
2018-03-19T02:21:11.895Z,28.30
2018-03-19T02:23:39.449Z,28.40
2018-03-19T02:26:07.041Z,28.38
2018-03-19T02:28:35.361Z,25.98
2018-03-19T02:31:02.923Z,25.85
2018-03-19T02:33:30.478Z,26.20
2018-03-19T02:35:58.039Z,30.37
2018-03-19T02:38:25.580Z,26.42
2018-03-19T02:40:53.160Z,25.10
2018-03-19T02:43:20.707Z,27.77
2018-03-19T02:45:48.248Z,31.77
2018-03-19T02:48:16.572Z,31.35
2018-03-19T02:50:44.121Z,31.50
2018-03-19T02:53:11.682Z,22.92
2018-03-19T02:55:39.229Z,28.05
2018-03-19T02:58:06.790Z,28.00
2018-03-19T03:00:34.345Z,23.25
2018-03-19T03:03:01.903Z,30.00
2018-03-19T03:05:29.469Z,26.02
2018-03-19T03:07:57.013Z,28.50
2018-03-19T03:10:25.340Z,26.65
2018-03-19T03:12:52.889Z,29.55
2018-03-19T03:15:20.469Z,27.85
2018-03-19T03:17:48.013Z,25.15
2018-03-19T03:20:15.585Z,32.75
2018-03-19T03:22:43.144Z,27.85
2018-03-19T03:25:10.708Z,25.92
2018-03-19T03:27:38.271Z,24.87
2018-03-19T03:30:05.825Z,26.20
2018-03-19T03:32:33.409Z,27.52
2018-03-19T03:35:00.986Z,27.77
2018-03-19T03:37:29.312Z,24.87
2018-03-19T03:39:56.857Z,24.08
2018-03-19T03:42:24.422Z,31.80
2018-03-19T03:44:52.006Z,28.55
2018-03-19T03:47:19.565Z,27.02
2018-03-19T03:49:47.124Z,25.65
2018-03-19T03:52:14.672Z,26.33
2018-03-19T03:54:42.244Z,29.60
2018-03-19T03:57:09.802Z,32.28
2018-03-19T03:59:37.356Z,32.47
2018-03-19T04:02:04.898Z,25.00
2018-03-19T04:04:32.451Z,27.15
2018-03-19T04:07:00.012Z,30.48
2018-03-19T04:09:27.564Z,26.08
2018-03-19T04:11:55.102Z,24.80
2018-03-19T04:14:23.401Z,24.30
2018-03-19T04:16:50.956Z,29.05
2018-03-19T04:19:18.485Z,25.80
2018-03-19T04:21:46.808Z,23.90
2018-03-19T04:24:14.355Z,28.95
2018-03-19T04:26:41.948Z,28.52
2018-03-19T04:29:09.495Z,26.67
2018-03-19T04:31:37.101Z,24.95
2018-03-19T04:34:04.610Z,27.62
2018-03-19T04:36:32.184Z,25.67
2018-03-19T04:38:59.750Z,32.38
2018-03-19T04:41:27.320Z,26.52
2018-03-19T04:43:54.889Z,28.02
2018-03-19T04:46:22.429Z,25.25
2018-03-19T04:48:50.756Z,27.27
2018-03-19T04:51:18.322Z,27.42
2018-03-19T04:53:45.891Z,28.58
2018-03-19T04:56:13.475Z,29.25
2018-03-19T04:58:41.040Z,28.52
2018-03-19T05:01:08.592Z,22.40
2018-03-19T05:03:36.173Z,26.58
2018-03-19T05:06:04.483Z,23.30
2018-03-19T05:08:32.316Z,24.02
2018-03-19T05:10:59.867Z,27.37
2018-03-19T05:13:27.400Z,27.00
2018-03-19T05:15:54.998Z,24.87
2018-03-19T05:18:22.529Z,25.48
2018-03-19T05:20:50.079Z,29.85
2018-03-19T05:23:17.620Z,24.60
2018-03-19T05:25:45.953Z,27.98
2018-03-19T05:28:13.505Z,23.83
2018-03-19T05:30:41.245Z,26.77
2018-03-19T05:33:08.851Z,23.23
2018-03-19T05:35:36.365Z,27.70
2018-03-19T05:38:03.921Z,25.60
2018-03-19T05:40:31.459Z,25.35
2018-03-19T05:42:59.016Z,31.40
2018-03-19T05:45:27.324Z,31.70
2018-03-19T05:47:54.876Z,28.87
2018-03-19T05:50:22.408Z,24.92
2018-03-19T05:52:50.752Z,24.37
2018-03-19T05:55:18.300Z,26.62
2018-03-19T05:57:45.852Z,26.85
2018-03-19T06:00:13.416Z,26.73
2018-03-19T06:02:41.004Z,21.90
2018-03-19T06:05:08.564Z,29.67
2018-03-19T06:07:36.115Z,24.85
2018-03-19T06:10:03.673Z,25.88
2018-03-19T06:12:31.220Z,25.80
2018-03-19T06:14:58.794Z,21.62
2018-03-19T06:17:26.331Z,23.23
2018-03-19T06:19:53.896Z,23.23
2018-03-19T06:22:21.448Z,26.92
2018-03-19T06:24:48.988Z,23.58
2018-03-19T06:27:17.330Z,27.73
2018-03-19T06:29:44.873Z,30.58
2018-03-19T06:32:12.429Z,23.00
2018-03-19T06:34:39.971Z,22.58
2018-03-19T06:37:07.536Z,22.95
2018-03-19T06:39:35.104Z,22.87
2018-03-19T06:42:02.668Z,30.00
2018-03-19T06:44:30.213Z,29.55
2018-03-19T06:46:59.792Z,23.33
2018-03-19T06:49:27.337Z,28.83
2018-03-19T06:51:55.100Z,22.35
2018-03-19T06:54:23.407Z,24.60
2018-03-19T06:56:50.983Z,24.65
2018-03-19T06:59:18.534Z,29.35
2018-03-19T07:01:46.065Z,22.42
2018-03-19T07:04:14.411Z,25.30
2018-03-19T07:06:41.966Z,22.20
2018-03-19T07:09:09.551Z,28.20
2018-03-19T07:11:37.107Z,26.50
2018-03-19T07:14:04.665Z,26.85
2018-03-19T07:16:32.213Z,27.23
2018-03-19T07:18:59.777Z,25.98
2018-03-19T07:21:27.323Z,27.55
2018-03-19T07:23:54.896Z,26.65
2018-03-19T07:26:22.441Z,28.62
2018-03-19T07:28:50.009Z,30.40
2018-03-19T07:31:17.543Z,25.60
2018-03-19T07:33:45.117Z,30.45
2018-03-19T07:36:12.673Z,25.23
2018-03-19T07:38:40.213Z,29.45
2018-03-19T07:41:07.780Z,24.02
2018-03-19T07:43:35.339Z,28.92
2018-03-19T07:46:02.922Z,27.75
2018-03-19T07:48:31.036Z,31.25
2018-03-19T07:50:58.584Z,30.85
2018-03-19T07:53:26.149Z,25.50
2018-03-19T07:55:54.491Z,23.17
2018-03-19T07:58:22.128Z,28.87
2018-03-19T08:00:49.676Z,27.08
2018-03-19T08:03:17.240Z,25.65
2018-03-19T08:05:44.847Z,26.05
2018-03-19T08:08:12.397Z,29.05
2018-03-19T08:10:39.963Z,27.50
2018-03-19T08:13:07.521Z,22.55
2018-03-19T08:15:35.076Z,27.55
2018-03-19T08:18:02.649Z,24.27
2018-03-19T08:20:30.200Z,18.48
2018-03-19T08:22:57.748Z,22.73
2018-03-19T08:25:25.314Z,26.37
2018-03-19T08:27:52.850Z,26.80
2018-03-19T08:30:20.425Z,26.37
2018-03-19T08:32:47.965Z,26.75
2018-03-19T08:35:15.532Z,27.52
2018-03-19T08:37:43.073Z,27.42
2018-03-19T08:40:10.661Z,26.08
2018-03-19T08:42:38.197Z,23.85
2018-03-19T08:45:05.733Z,21.27
2018-03-19T08:47:34.046Z,23.67
2018-03-19T08:50:01.607Z,26.08
2018-03-19T08:52:29.170Z,25.58
2018-03-19T08:54:56.727Z,25.70
2018-03-19T08:57:24.281Z,22.85
2018-03-19T08:59:51.860Z,23.73
2018-03-19T09:02:19.731Z,24.80
2018-03-19T09:04:48.113Z,26.00
2018-03-19T09:07:15.712Z,28.12
2018-03-19T09:09:43.241Z,24.25
2018-03-19T09:12:10.774Z,24.60
2018-03-19T09:14:38.335Z,21.73
2018-03-19T09:17:05.880Z,20.62
2018-03-19T09:19:33.456Z,26.92
2018-03-19T09:22:01.025Z,22.48
2018-03-19T09:24:28.577Z,23.87
2018-03-19T09:26:56.152Z,21.87
2018-03-19T09:29:23.696Z,16.27
2018-03-19T09:31:51.260Z,23.02
2018-03-19T09:34:18.796Z,19.45
2018-03-19T09:36:46.352Z,25.25
2018-03-19T09:39:13.893Z,25.05
2018-03-19T09:41:42.208Z,22.77
2018-03-19T09:44:09.752Z,25.17
2018-03-19T09:46:37.325Z,23.33
2018-03-19T09:49:04.868Z,24.23
2018-03-19T09:51:32.458Z,20.17
2018-03-19T09:53:59.984Z,21.80
2018-03-19T09:56:27.529Z,24.23
2018-03-19T09:58:55.837Z,20.02
2018-03-19T10:01:23.407Z,21.10
2018-03-19T10:03:50.970Z,23.05
2018-03-19T10:06:18.535Z,22.02
2018-03-19T10:08:46.063Z,24.35
2018-03-19T10:11:13.658Z,20.42
2018-03-19T10:13:41.192Z,22.25
2018-03-19T10:16:08.725Z,24.30
2018-03-19T10:18:37.054Z,22.90
2018-03-19T10:21:04.609Z,21.08
2018-03-19T10:23:32.166Z,20.45
2018-03-19T10:25:59.715Z,18.52
2018-03-19T10:28:27.274Z,19.58
2018-03-19T10:30:54.815Z,22.50
2018-03-19T10:33:22.423Z,22.35
2018-03-19T10:35:49.943Z,21.98
2018-03-19T10:38:17.495Z,19.85
2018-03-19T10:40:45.034Z,18.50
2018-03-19T10:43:13.366Z,21.35
2018-03-19T10:45:40.893Z,24.98
2018-03-19T10:48:08.457Z,22.40
2018-03-19T10:50:36.022Z,19.80
2018-03-19T10:53:03.597Z,21.85
2018-03-19T10:55:31.162Z,21.75
2018-03-19T10:57:58.744Z,22.45
2018-03-19T11:00:26.273Z,19.60
2018-03-19T11:03:09.672Z,20.77
2018-03-19T11:05:42.871Z,19.65
2018-03-19T11:08:10.426Z,17.73
2018-03-19T11:10:37.995Z,20.92
2018-03-19T11:13:05.530Z,21.02
2018-03-19T11:15:33.089Z,23.25
2018-03-19T11:18:00.624Z,22.73
2018-03-19T11:20:28.193Z,19.12
2018-03-19T11:22:56.553Z,24.27
2018-03-19T11:25:24.090Z,23.10
2018-03-19T11:27:51.651Z,18.20
2018-03-19T11:30:19.211Z,16.73
2018-03-19T11:32:46.782Z,16.73
2018-03-19T11:35:14.333Z,20.62
2018-03-19T11:37:41.930Z,20.23
2018-03-19T11:40:10.229Z,22.60
2018-03-19T11:42:37.787Z,24.98
2018-03-19T11:45:05.331Z,20.58
2018-03-19T11:47:32.894Z,18.58
2018-03-19T11:50:00.454Z,28.20
2018-03-19T11:52:28.084Z,17.85
2018-03-19T11:54:55.635Z,22.48
2018-03-19T11:57:23.964Z,21.37
2018-03-19T11:59:51.528Z,23.62
2018-03-19T12:02:19.080Z,23.98
2018-03-19T12:04:46.616Z,22.62
2018-03-19T12:07:14.290Z,18.27
2018-03-19T12:09:41.845Z,22.75
2018-03-19T12:12:09.414Z,21.35
2018-03-19T12:14:36.958Z,19.87
2018-03-19T12:17:04.495Z,18.77
2018-03-19T12:19:32.079Z,20.85
2018-03-19T12:21:59.620Z,27.33
2018-03-19T12:24:27.944Z,17.40
2018-03-19T12:26:55.627Z,20.42
2018-03-19T12:29:23.267Z,21.23
2018-03-19T12:31:51.536Z,21.95
2018-03-19T12:34:19.085Z,23.50
2018-03-19T12:36:46.658Z,22.08
2018-03-19T12:39:14.232Z,23.50
2018-03-19T12:41:41.775Z,19.62
2018-03-19T12:44:09.339Z,28.83
2018-03-19T12:46:36.912Z,21.35
2018-03-19T12:49:04.449Z,26.05
2018-03-19T12:51:32.037Z,22.37
2018-03-19T12:53:59.560Z,26.17
2018-03-19T12:56:27.141Z,19.42
2018-03-19T12:58:54.715Z,23.48
2018-03-19T13:01:22.254Z,24.17
2018-03-19T13:03:49.822Z,20.98
2018-03-19T13:06:17.373Z,28.85
2018-03-19T13:08:44.909Z,21.75
2018-03-19T13:11:14.240Z,22.90
2018-03-19T13:13:41.783Z,24.63
2018-03-19T13:16:09.351Z,23.55
2018-03-19T13:18:36.900Z,23.10
2018-03-19T13:21:04.464Z,23.55
2018-03-19T13:23:32.074Z,24.08
2018-03-19T13:25:59.608Z,26.45
2018-03-19T13:28:27.965Z,25.52
2018-03-19T13:30:55.513Z,19.35
2018-03-19T13:33:23.071Z,23.12
2018-03-19T13:35:50.650Z,21.83
2018-03-19T13:38:19.711Z,21.17
2018-03-19T13:40:47.378Z,21.25
2018-03-19T13:43:14.937Z,26.10
2018-03-19T13:45:42.516Z,23.45
2018-03-19T13:48:10.101Z,20.25
2018-03-19T13:50:37.638Z,28.05
2018-03-19T13:53:05.224Z,25.40
2018-03-19T13:55:33.537Z,20.50
2018-03-19T13:58:01.119Z,20.60
2018-03-19T14:00:28.656Z,22.20
2018-03-19T14:02:56.211Z,27.35
2018-03-19T14:05:23.807Z,23.17
2018-03-19T14:07:51.352Z,21.00
2018-03-19T14:10:18.938Z,24.10
2018-03-19T14:12:46.512Z,23.65
2018-03-19T14:15:14.080Z,21.08
2018-03-19T14:17:42.400Z,23.33
2018-03-19T14:20:09.953Z,23.55
2018-03-19T14:22:37.480Z,28.87
2018-03-19T14:25:05.808Z,28.98
2018-03-19T14:27:33.426Z,27.65
2018-03-19T14:30:00.947Z,28.00
2018-03-19T14:32:28.491Z,28.10
2018-03-19T14:34:56.302Z,32.03
2018-03-19T14:37:23.856Z,24.33
2018-03-19T14:39:51.397Z,20.88
2018-03-19T14:42:18.936Z,26.12
2018-03-19T14:44:46.498Z,24.40
2018-03-19T14:47:14.051Z,23.48
2018-03-19T14:49:41.611Z,21.75
2018-03-19T14:52:09.149Z,23.17
2018-03-19T14:54:36.759Z,22.98
2018-03-19T14:57:04.299Z,22.75
2018-03-19T14:59:31.851Z,24.15
2018-03-19T15:01:59.402Z,21.15
2018-03-19T15:04:26.953Z,25.80
2018-03-19T15:06:54.510Z,26.42
2018-03-19T15:09:22.086Z,21.40
2018-03-19T15:11:50.433Z,23.12
2018-03-19T15:14:17.961Z,21.52
2018-03-19T15:16:45.516Z,26.08
2018-03-19T15:19:13.060Z,24.33
2018-03-19T15:21:41.393Z,25.60
2018-03-19T15:24:08.956Z,28.30
2018-03-19T15:26:36.514Z,27.08
2018-03-19T15:29:04.088Z,25.05
2018-03-19T15:31:31.628Z,23.25
2018-03-19T15:33:59.213Z,28.42
2018-03-19T15:36:26.755Z,28.95
2018-03-19T15:38:54.331Z,24.67
2018-03-19T15:41:21.864Z,23.38
2018-03-19T15:43:49.423Z,32.78
2018-03-19T15:46:16.977Z,23.80
2018-03-19T15:48:44.525Z,34.67
2018-03-19T15:51:12.141Z,21.92
2018-03-19T15:53:40.460Z,26.10
2018-03-19T15:56:08.301Z,24.77
2018-03-19T15:58:36.603Z,28.55
2018-03-19T16:01:04.161Z,30.35
2018-03-19T16:03:31.711Z,27.42
2018-03-19T16:05:59.277Z,26.40
2018-03-19T16:08:26.814Z,27.90
2018-03-19T16:10:55.144Z,28.27
2018-03-19T16:13:22.696Z,22.85
2018-03-19T16:15:50.243Z,32.00
2018-03-19T16:18:17.793Z,28.90
2018-03-19T16:20:45.334Z,23.80
2018-03-19T16:23:12.988Z,30.20
2018-03-19T16:25:41.299Z,28.58
2018-03-19T16:28:08.868Z,33.75
2018-03-19T16:30:36.426Z,26.42
2018-03-19T16:33:03.997Z,25.92
2018-03-19T16:35:31.537Z,27.05
2018-03-19T16:37:59.862Z,27.45
2018-03-19T16:40:27.400Z,30.48
2018-03-19T16:42:54.943Z,32.47
2018-03-19T16:45:23.329Z,30.50
2018-03-19T16:47:50.847Z,29.87
2018-03-19T16:50:18.420Z,32.60
2018-03-19T16:52:46.741Z,36.78
2018-03-19T16:55:14.336Z,32.05
2018-03-19T16:57:41.883Z,31.73
2018-03-19T17:00:09.453Z,28.52
2018-03-19T17:02:36.992Z,31.60
2018-03-19T17:05:04.598Z,30.20
2018-03-19T17:07:32.904Z,35.90
2018-03-19T17:10:00.473Z,28.40
2018-03-19T17:12:28.018Z,29.65
2018-03-19T17:14:55.564Z,32.28
2018-03-19T17:17:24.290Z,29.05
2018-03-19T17:19:51.860Z,33.65
2018-03-19T17:22:19.425Z,26.08
2018-03-19T17:24:46.973Z,28.67
2018-03-19T17:27:14.560Z,30.00
2018-03-19T17:29:42.101Z,25.83
2018-03-19T17:32:09.745Z,28.38
2018-03-19T17:34:37.285Z,30.50
2018-03-19T17:37:04.871Z,25.62
2018-03-19T17:39:32.426Z,29.83
2018-03-19T17:41:59.982Z,27.05
2018-03-19T17:44:28.456Z,24.35
2018-03-19T17:46:55.998Z,29.70
2018-03-19T17:49:24.341Z,24.87
2018-03-19T17:51:51.903Z,28.77
2018-03-19T17:54:19.456Z,28.05
2018-03-19T17:56:47.008Z,25.48
2018-03-19T17:59:14.576Z,33.33
2018-03-19T18:01:42.126Z,27.33
2018-03-19T18:04:10.643Z,26.33
2018-03-19T18:06:38.978Z,23.85
2018-03-19T18:09:06.627Z,25.00
2018-03-19T18:11:34.187Z,25.50
2018-03-19T18:14:01.749Z,26.58
2018-03-19T18:16:29.311Z,24.37
2018-03-19T18:18:56.866Z,26.10
2018-03-19T18:21:24.434Z,24.95
2018-03-19T18:23:52.053Z,21.23
2018-03-19T18:26:20.387Z,21.65
2018-03-19T18:28:47.940Z,26.33
2018-03-19T18:31:15.511Z,27.20
2018-03-19T18:33:43.052Z,22.83
2018-03-19T18:36:10.612Z,27.05
2018-03-19T18:38:38.164Z,22.75
2018-03-19T18:41:05.724Z,24.90
2018-03-19T18:43:33.271Z,21.35
2018-03-19T18:46:00.887Z,22.10
2018-03-19T18:48:29.270Z,24.30
2018-03-19T18:50:56.808Z,24.92
2018-03-19T18:53:24.445Z,24.65
2018-03-19T18:55:52.023Z,26.85
2018-03-19T18:58:19.618Z,27.15
2018-03-19T19:00:47.196Z,24.95
2018-03-19T19:03:15.509Z,27.58
2018-03-19T19:05:43.092Z,26.60
2018-03-19T19:08:10.633Z,23.02
2018-03-19T19:10:41.257Z,25.55
2018-03-19T19:13:08.811Z,24.48
2018-03-19T19:15:36.378Z,27.05
2018-03-19T19:18:03.920Z,24.98
2018-03-19T19:20:31.477Z,24.23
2018-03-19T19:22:59.039Z,31.05
2018-03-19T19:25:26.624Z,23.85
2018-03-19T19:27:54.176Z,24.20
2018-03-19T19:30:21.797Z,23.23
2018-03-19T19:32:50.116Z,20.95
2018-03-19T19:35:17.696Z,22.40
2018-03-19T19:37:45.232Z,24.48
2018-03-19T19:40:12.899Z,18.75
2018-03-19T19:42:40.465Z,25.98
2018-03-19T19:45:08.010Z,26.12
2018-03-19T19:47:35.575Z,27.60
2018-03-19T19:50:03.141Z,21.42
2018-03-19T19:52:30.722Z,21.95
2018-03-19T19:54:58.275Z,23.48
2018-03-19T19:57:25.858Z,22.73
2018-03-19T19:59:53.574Z,21.83
2018-03-19T20:02:21.128Z,32.47
2018-03-19T20:04:48.707Z,22.02
2018-03-19T20:07:16.282Z,23.98
2018-03-19T20:09:43.848Z,20.45
2018-03-19T20:12:11.417Z,22.10
2018-03-19T20:14:39.025Z,23.92
2018-03-19T20:17:06.601Z,23.92
2018-03-19T20:19:34.141Z,18.73
2018-03-19T20:22:01.715Z,23.52
2018-03-19T20:24:29.260Z,23.52
2018-03-19T20:26:56.862Z,20.83
2018-03-19T20:29:24.397Z,17.75
2018-03-19T20:31:51.982Z,25.25
2018-03-19T20:34:19.541Z,23.05
2018-03-19T20:36:47.101Z,18.40
2018-03-19T20:39:14.991Z,18.17
2018-03-19T20:41:44.087Z,21.40
2018-03-19T20:44:11.656Z,17.48
2018-03-19T20:46:39.256Z,21.85
2018-03-19T20:49:06.832Z,21.30
2018-03-19T20:51:35.157Z,16.92
2018-03-19T20:54:02.722Z,21.77
2018-03-19T20:56:30.304Z,14.43
2018-03-19T20:58:57.855Z,18.62
2018-03-19T21:01:25.428Z,18.30
2018-03-19T21:03:52.984Z,15.57
2018-03-19T21:06:20.546Z,21.50
2018-03-19T21:08:48.220Z,19.25
2018-03-19T21:11:15.793Z,17.83
2018-03-19T21:13:44.135Z,18.98
2018-03-19T21:16:11.756Z,16.67
2018-03-19T21:18:40.066Z,13.90
2018-03-19T21:21:07.616Z,18.58
2018-03-19T21:23:35.183Z,14.60
2018-03-19T21:26:02.736Z,16.23
2018-03-19T21:28:30.271Z,16.08
2018-03-19T21:30:57.828Z,14.18
2018-03-19T21:33:25.372Z,19.05
2018-03-19T21:35:53.718Z,18.65
2018-03-19T21:38:21.260Z,18.42
2018-03-19T21:40:48.840Z,14.55
2018-03-19T21:43:16.394Z,15.55
2018-03-19T21:45:43.969Z,15.30
2018-03-19T21:48:11.500Z,19.62
2018-03-19T21:50:39.033Z,13.80
2018-03-19T21:53:06.600Z,19.90
2018-03-19T21:55:34.176Z,21.90
2018-03-19T21:58:01.722Z,16.55
2018-03-19T22:00:29.281Z,17.12
2018-03-19T22:02:56.853Z,23.30
2018-03-19T22:05:24.423Z,22.20
2018-03-19T22:07:51.988Z,15.70
2018-03-19T22:10:19.552Z,16.30
2018-03-19T22:12:47.120Z,21.02
2018-03-19T22:15:14.704Z,20.27
2018-03-19T22:17:43.008Z,19.62
2018-03-19T22:20:10.587Z,17.65
2018-03-19T22:22:38.145Z,25.17
2018-03-19T22:25:05.701Z,18.45
2018-03-19T22:27:33.247Z,18.10
2018-03-19T22:30:00.924Z,19.40
2018-03-19T22:32:28.464Z,17.90
2018-03-19T22:34:56.024Z,22.08
2018-03-19T22:37:23.603Z,17.65
2018-03-19T22:39:51.160Z,22.52
2018-03-19T22:42:18.741Z,19.25
2018-03-19T22:44:46.294Z,20.90
2018-03-19T22:47:13.860Z,19.12
2018-03-19T22:49:42.318Z,19.23
2018-03-19T22:52:09.882Z,19.70
2018-03-19T22:54:37.456Z,20.15
2018-03-19T22:57:05.001Z,21.62
2018-03-19T22:59:32.565Z,20.23
2018-03-19T23:02:00.112Z,19.45
2018-03-19T23:04:39.444Z,17.23
2018-03-19T23:07:06.981Z,20.48
2018-03-19T23:09:35.322Z,23.40
2018-03-19T23:12:02.857Z,19.45
2018-03-19T23:14:31.972Z,19.67
2018-03-19T23:16:59.515Z,21.25
2018-03-19T23:19:27.094Z,19.80
2018-03-19T23:21:54.645Z,20.77
2018-03-19T23:24:22.999Z,22.27
2018-03-19T23:26:50.536Z,23.02
2018-03-19T23:29:18.078Z,20.23
2018-03-19T23:31:45.638Z,20.08
2018-03-19T23:34:13.177Z,19.58
2018-03-19T23:36:40.728Z,21.75
2018-03-19T23:39:09.044Z,22.02
2018-03-19T23:41:36.597Z,25.45
2018-03-19T23:44:04.136Z,21.95
2018-03-19T23:46:31.694Z,20.62
2018-03-19T23:49:00.000Z,18.48
2018-03-19T23:51:27.572Z,17.92
2018-03-19T23:53:55.114Z,20.17
2018-03-19T23:56:22.688Z,18.50
2018-03-19T23:58:50.280Z,22.98
